KDFW/DFW METAR and TAF weather

Enter ICAO airport designator
Station Type Date Time Source
KDFW METAR 2020/01/27 13:53 UTC NOAA

KDFW 271353Z 00000KT 0SM R17C/0600V0800FT FG VV001 07/07 A3000 RMK AO2 SFC VIS 1/16 SLP159 T00670067


Station Type Date Time Source
KDFW Decoded METAR 2020/01/27 13:53 UTC NOAA

DALLAS/FT. WORTH INTERNATIONAL AIRPORT , TX, United States (KDFW) 32-54N 097-02W 174M
Jan 27, 2020 - 08:53 AM EST / 2020.01.27 1353 UTC
Wind: Calm (direction variable):0
Visibility: less than 1 mile:0
Sky conditions: obscured
Weather: fog
Temperature: 44.1 F (6.7 C)
Dew Point: 44.1 F (6.7 C)
Relative Humidity: 100%
Pressure (altimeter): 30 in. Hg (1015 hPa)
ob: KDFW 271353Z 00000KT 0SM R17C/0600V0800FT FG VV001 07/07 A3000 RMK AO2 SFC VIS 1/16 SLP159 T00670067
cycle: 14

Station Type Date Time Source
KDFW TAF 2020/01/27 12:30 UTC NOAA

TAF KDFW 271129Z 2712/2818 00000KT 1SM BR OVC004
TEMPO 2712/2715 1/4SM FG
FM271700 14004KT 4SM BR BKN010
FM271800 16008KT P6SM FEW025 SCT250
FM280500 15011KT P6SM BKN025
FM280900 17014KT P6SM VCSH OVC025

Example: see airport list